createdAt,value
2022-11-23T00:00:24.591Z,22.25
2022-11-23T00:02:57.457Z,23.50
2022-11-23T00:05:27.099Z,24.25
2022-11-23T00:07:56.771Z,25.00
2022-11-23T00:10:26.044Z,27.75
2022-11-23T00:12:55.349Z,24.25
2022-11-23T00:15:24.635Z,28.50
2022-11-23T00:17:53.901Z,24.50
2022-11-23T00:20:23.160Z,27.25
2022-11-23T00:22:52.348Z,31.00
2022-11-23T00:25:21.667Z,32.00
2022-11-23T00:27:51.108Z,34.25
2022-11-23T00:30:20.479Z,33.75
2022-11-23T00:32:49.817Z,33.50
2022-11-23T00:35:19.173Z,31.50
2022-11-23T00:37:48.564Z,33.00
2022-11-23T00:40:19.083Z,33.50
2022-11-23T00:42:48.381Z,32.00
2022-11-23T00:45:17.682Z,29.00
2022-11-23T00:47:46.983Z,29.25
2022-11-23T00:50:16.292Z,38.00
2022-11-23T00:52:45.586Z,32.50
2022-11-23T00:55:14.988Z,29.50
2022-11-23T00:57:44.394Z,36.25
2022-11-23T01:00:14.490Z,37.00
2022-11-23T01:02:43.780Z,41.00
2022-11-23T01:05:13.054Z,37.00
2022-11-23T01:07:42.370Z,32.00
2022-11-23T01:10:11.710Z,37.75
2022-11-23T01:12:42.468Z,37.00
2022-11-23T01:15:11.891Z,36.75
2022-11-23T01:17:41.329Z,31.00
2022-11-23T01:20:11.221Z,33.75
2022-11-23T01:22:42.407Z,32.25
2022-11-23T01:25:11.748Z,32.00
2022-11-23T01:27:41.121Z,34.75
2022-11-23T01:30:10.832Z,33.00
2022-11-23T01:32:40.322Z,28.25
2022-11-23T01:35:11.104Z,29.50
2022-11-23T01:37:40.572Z,31.75
2022-11-23T01:40:11.323Z,27.25
2022-11-23T01:42:57.546Z,31.00
2022-11-23T01:45:41.039Z,30.75
2022-11-23T01:48:20.893Z,28.75
2022-11-23T01:50:51.811Z,30.75
2022-11-23T01:53:23.570Z,32.75
2022-11-23T01:55:53.742Z,34.00
2022-11-23T01:58:24.800Z,28.50
2022-11-23T02:00:54.370Z,41.25
2022-11-23T02:03:24.742Z,40.75
2022-11-23T02:06:01.499Z,37.50
2022-11-23T02:08:31.426Z,32.75
2022-11-23T02:11:01.441Z,35.00
2022-11-23T02:13:31.073Z,35.00
2022-11-23T02:16:00.758Z,35.50
2022-11-23T02:18:32.205Z,33.75
2022-11-23T02:21:02.869Z,31.00
2022-11-23T02:23:53.523Z,34.25
2022-11-23T02:26:31.105Z,33.00
2022-11-23T02:29:13.361Z,32.25
2022-11-23T02:31:42.972Z,35.75
2022-11-23T02:34:12.373Z,38.25
2022-11-23T02:36:43.561Z,31.50
2022-11-23T02:39:14.244Z,34.75
2022-11-23T02:41:45.446Z,30.75
2022-11-23T02:44:27.013Z,30.50
2022-11-23T02:46:56.956Z,31.25
2022-11-23T02:49:26.742Z,33.00
2022-11-23T02:51:56.116Z,30.25
2022-11-23T02:54:28.464Z,34.00
2022-11-23T02:56:59.428Z,31.75
2022-11-23T02:59:29.281Z,34.50
2022-11-23T03:01:59.027Z,32.00
2022-11-23T03:04:28.462Z,28.25
2022-11-23T03:06:58.521Z,31.25
2022-11-23T03:09:29.850Z,38.75
2022-11-23T03:11:59.482Z,32.00
2022-11-23T03:14:30.958Z,42.75
2022-11-23T03:17:03.589Z,40.00
2022-11-23T03:19:38.423Z,35.50
2022-11-23T03:22:09.770Z,34.75
2022-11-23T03:24:40.672Z,36.25
2022-11-23T03:27:14.369Z,33.50
2022-11-23T03:29:44.950Z,38.25
2022-11-23T03:32:22.039Z,36.50
2022-11-23T03:34:55.484Z,43.50
2022-11-23T03:37:26.770Z,37.75
2022-11-23T03:39:56.876Z,38.50
2022-11-23T03:42:44.080Z,38.25
2022-11-23T03:45:14.303Z,35.25
2022-11-23T03:47:43.625Z,33.00
2022-11-23T03:50:13.135Z,33.50
2022-11-23T03:52:42.526Z,34.50
2022-11-23T03:55:16.351Z,36.00
2022-11-23T03:57:45.770Z,35.25
2022-11-23T04:00:16.958Z,33.50
2022-11-23T04:02:47.958Z,32.25
2022-11-23T04:05:35.770Z,36.50
2022-11-23T04:08:24.610Z,29.50
2022-11-23T04:10:59.182Z,34.75
2022-11-23T04:13:39.035Z,30.00
2022-11-23T04:16:10.282Z,31.50
2022-11-23T04:18:44.095Z,30.00
2022-11-23T04:21:13.591Z,27.75
2022-11-23T04:23:43.102Z,30.00
2022-11-23T04:26:15.672Z,31.00
2022-11-23T04:28:47.712Z,24.75
2022-11-23T04:31:17.270Z,25.00
2022-11-23T04:33:59.543Z,30.25
2022-11-23T04:36:29.922Z,26.25
2022-11-23T04:39:00.028Z,24.75
2022-11-23T04:41:37.795Z,24.50
2022-11-23T04:44:10.008Z,27.00
2022-11-23T04:46:44.489Z,31.25
2022-11-23T04:49:15.802Z,24.75
2022-11-23T04:51:45.854Z,26.25
2022-11-23T04:54:20.314Z,21.00
2022-11-23T04:56:56.462Z,23.50
2022-11-23T04:59:26.701Z,24.50
2022-11-23T05:01:57.095Z,23.25
2022-11-23T05:04:49.652Z,29.25
2022-11-23T05:07:20.737Z,24.25
2022-11-23T05:09:56.763Z,24.75
2022-11-23T05:12:26.924Z,27.75
2022-11-23T05:14:56.368Z,26.00
2022-11-23T05:17:32.383Z,27.25
2022-11-23T05:20:01.964Z,22.00
2022-11-23T05:22:34.931Z,20.00
2022-11-23T05:25:04.467Z,21.75
2022-11-23T05:27:36.604Z,24.00
2022-11-23T05:30:08.335Z,20.75
2022-11-23T05:32:39.123Z,21.50
2022-11-23T05:35:08.865Z,19.00
2022-11-23T05:37:41.094Z,23.00
2022-11-23T05:40:15.137Z,22.50
2022-11-23T05:42:45.327Z,27.00
2022-11-23T05:45:20.135Z,26.50
2022-11-23T05:47:54.105Z,28.50
2022-11-23T05:50:33.680Z,23.25
2022-11-23T05:53:21.095Z,25.50
2022-11-23T05:56:01.140Z,23.25
2022-11-23T05:58:34.812Z,21.25
2022-11-23T06:01:04.847Z,19.00
2022-11-23T06:03:39.549Z,22.00
2022-11-23T06:06:09.242Z,24.00
2022-11-23T06:08:46.612Z,23.00
2022-11-23T06:11:20.644Z,26.75
2022-11-23T06:13:50.781Z,22.00
2022-11-23T06:16:20.549Z,28.00
2022-11-23T06:19:02.088Z,21.00
2022-11-23T06:21:31.574Z,21.25
2022-11-23T06:24:02.513Z,26.50
2022-11-23T06:26:33.920Z,17.50
2022-11-23T06:29:03.544Z,19.25
2022-11-23T06:31:33.227Z,19.25
2022-11-23T06:34:03.035Z,24.50
2022-11-23T06:36:35.000Z,25.00
2022-11-23T06:39:04.721Z,21.75
2022-11-23T06:41:36.590Z,19.75
2022-11-23T06:44:06.932Z,20.00
2022-11-23T06:46:43.209Z,19.00
2022-11-23T06:49:12.949Z,27.25
2022-11-23T06:51:46.306Z,24.75
2022-11-23T06:54:16.034Z,35.50
2022-11-23T06:56:47.100Z,33.75
2022-11-23T06:59:19.047Z,25.25
2022-11-23T07:01:51.776Z,30.00
2022-11-23T07:04:22.646Z,29.25
2022-11-23T07:06:54.459Z,27.50
2022-11-23T07:09:47.031Z,46.00
2022-11-23T07:12:31.517Z,37.25
2022-11-23T07:15:03.163Z,32.50
2022-11-23T07:17:42.578Z,32.00
2022-11-23T07:20:14.666Z,34.25
2022-11-23T07:22:46.498Z,35.75
2022-11-23T07:25:20.702Z,35.25
2022-11-23T07:27:57.356Z,30.25
2022-11-23T07:30:29.969Z,32.00
2022-11-23T07:33:02.615Z,30.00
2022-11-23T07:35:34.539Z,30.25
2022-11-23T07:38:05.003Z,28.75
2022-11-23T07:40:36.715Z,26.75
2022-11-23T07:43:08.157Z,28.75
2022-11-23T07:45:41.929Z,26.25
2022-11-23T07:48:18.844Z,28.00
2022-11-23T07:50:49.543Z,22.25
2022-11-23T07:53:19.294Z,19.75
2022-11-23T07:55:49.145Z,24.75
2022-11-23T07:58:20.141Z,23.75
2022-11-23T08:00:50.241Z,18.75
2022-11-23T08:03:27.886Z,19.00
2022-11-23T08:05:59.400Z,24.00
2022-11-23T08:08:29.198Z,21.75
2022-11-23T08:10:58.805Z,20.50
2022-11-23T08:13:28.413Z,20.00
2022-11-23T08:15:59.527Z,30.50
2022-11-23T08:18:29.363Z,24.00
2022-11-23T08:21:02.123Z,23.25
2022-11-23T08:23:32.040Z,28.00
2022-11-23T08:26:01.535Z,26.00
2022-11-23T08:28:31.417Z,23.50
2022-11-23T08:31:01.216Z,21.25
2022-11-23T08:33:30.921Z,19.25
2022-11-23T08:36:04.924Z,24.00
2022-11-23T08:38:36.097Z,29.75
2022-11-23T08:41:06.986Z,23.25
2022-11-23T08:43:36.930Z,18.25
2022-11-23T08:46:10.966Z,17.25
2022-11-23T08:48:40.814Z,18.25
2022-11-23T08:51:10.705Z,17.00
2022-11-23T08:53:40.287Z,21.50
2022-11-23T08:56:09.916Z,27.75
2022-11-23T08:58:40.417Z,42.75
2022-11-23T09:01:11.250Z,37.50
2022-11-23T09:03:41.271Z,39.50
2022-11-23T09:06:10.779Z,41.00
2022-11-23T09:08:41.659Z,45.00
2022-11-23T09:11:12.354Z,38.25
2022-11-23T09:13:43.377Z,35.00
2022-11-23T09:16:12.699Z,40.00
2022-11-23T09:18:42.111Z,41.75
2022-11-23T09:21:12.068Z,39.75
2022-11-23T09:23:41.502Z,45.50
2022-11-23T09:26:12.053Z,46.50
2022-11-23T09:28:44.682Z,107.33
2022-11-23T09:31:14.874Z,120.00
2022-11-23T09:33:44.125Z,61.50
2022-11-23T09:36:13.884Z,55.50
2022-11-23T09:38:56.216Z,53.25
2022-11-23T09:41:26.175Z,50.75
2022-11-23T09:43:55.492Z,45.50
2022-11-23T09:46:35.656Z,46.75
2022-11-23T09:49:20.276Z,48.00
2022-11-23T09:51:50.228Z,47.25
2022-11-23T09:54:22.631Z,46.00
2022-11-23T09:57:00.037Z,43.50
2022-11-23T09:59:41.413Z,42.00
2022-11-23T10:02:21.480Z,40.25
2022-11-23T10:04:53.280Z,37.00
2022-11-23T10:07:23.962Z,38.00
2022-11-23T10:10:06.341Z,36.50
2022-11-23T10:12:41.888Z,36.00
2022-11-23T10:15:11.685Z,35.75
2022-11-23T10:17:52.349Z,35.25
2022-11-23T10:20:41.088Z,33.50
2022-11-23T10:23:16.544Z,39.00
2022-11-23T10:25:51.038Z,39.25
2022-11-23T10:28:22.448Z,34.75
2022-11-23T10:31:18.781Z,32.50
2022-11-23T10:33:57.625Z,32.75
2022-11-23T10:36:28.231Z,33.50
2022-11-23T10:39:02.594Z,33.25
2022-11-23T10:41:32.899Z,31.50
2022-11-23T10:44:11.642Z,32.00
2022-11-23T10:46:42.476Z,33.00
2022-11-23T10:49:18.396Z,34.25
2022-11-23T10:51:59.137Z,33.25
2022-11-23T10:54:40.684Z,31.50
2022-11-23T10:57:29.240Z,30.75
2022-11-23T11:00:00.881Z,32.25
2022-11-23T11:02:30.866Z,29.75
2022-11-23T11:08:29.612Z,28.75
2022-11-23T11:11:01.655Z,26.75
2022-11-23T11:13:32.225Z,27.75
2022-11-23T11:16:03.922Z,27.75
2022-11-23T11:18:38.137Z,27.25
2022-11-23T11:21:32.860Z,34.50
2022-11-23T11:24:04.294Z,33.75
2022-11-23T11:26:36.251Z,31.50
2022-11-23T11:29:11.826Z,25.75
2022-11-23T11:32:07.713Z,28.00
2022-11-23T11:34:43.938Z,28.50
2022-11-23T11:37:25.633Z,27.75
2022-11-23T11:39:57.676Z,36.75
2022-11-23T11:42:43.682Z,32.50
2022-11-23T11:45:34.595Z,31.50
2022-11-23T11:48:31.488Z,33.00
2022-11-23T11:51:01.934Z,32.00
2022-11-23T11:53:35.167Z,33.00
2022-11-23T11:56:05.820Z,31.50
2022-11-23T11:58:43.003Z,32.00
2022-11-23T12:01:19.808Z,30.50
2022-11-23T12:03:53.664Z,30.00
2022-11-23T12:06:37.939Z,26.50
2022-11-23T12:09:11.476Z,29.75
2022-11-23T12:11:41.817Z,30.25
2022-11-23T12:14:14.869Z,24.75
2022-11-23T12:17:10.272Z,31.00
2022-11-23T12:20:03.338Z,31.00
2022-11-23T12:22:32.910Z,32.25
2022-11-23T12:25:13.043Z,28.75
2022-11-23T12:27:51.883Z,31.50
2022-11-23T12:30:27.466Z,29.00
2022-11-23T12:33:06.838Z,28.75
2022-11-23T12:35:48.560Z,28.25
2022-11-23T12:38:43.175Z,31.50
2022-11-23T12:41:31.343Z,29.00
2022-11-23T12:44:04.450Z,24.25
2022-11-23T12:46:37.279Z,27.50
2022-11-23T12:49:10.970Z,28.75
2022-11-23T12:51:46.948Z,30.25
2022-11-23T12:54:34.290Z,29.75
2022-11-23T12:57:11.558Z,29.25
2022-11-23T12:59:45.260Z,23.25
2022-11-23T13:02:44.189Z,26.50
2022-11-23T13:05:34.327Z,29.75
2022-11-23T13:08:14.934Z,29.00
2022-11-23T13:10:50.278Z,25.00
2022-11-23T13:13:38.792Z,29.50
2022-11-23T13:16:26.540Z,22.75
2022-11-23T13:19:00.151Z,27.00
2022-11-23T13:21:41.663Z,21.75
2022-11-23T13:24:29.862Z,22.25
2022-11-23T13:27:26.968Z,31.50
2022-11-23T13:30:03.254Z,26.25
2022-11-23T13:32:47.785Z,26.75
2022-11-23T13:35:23.567Z,26.00
2022-11-23T13:37:56.790Z,31.25
2022-11-23T13:40:29.166Z,29.25
2022-11-23T13:43:01.647Z,29.00
2022-11-23T13:45:37.894Z,22.50
2022-11-23T13:48:19.288Z,27.25
2022-11-23T13:50:53.389Z,23.75
2022-11-23T13:53:34.700Z,25.00
2022-11-23T13:56:24.730Z,24.25
2022-11-23T13:59:20.283Z,26.00
2022-11-23T14:02:08.097Z,24.25
2022-11-23T14:04:42.156Z,24.00
2022-11-23T14:07:19.740Z,30.25
2022-11-23T14:10:01.147Z,28.50
2022-11-23T14:12:52.619Z,27.75
2022-11-23T14:15:24.445Z,28.75
2022-11-23T14:17:54.266Z,29.25
2022-11-23T14:20:30.127Z,23.75
2022-11-23T14:23:19.502Z,29.50
2022-11-23T14:26:02.662Z,29.50
2022-11-23T14:28:51.878Z,29.00
2022-11-23T14:31:25.050Z,32.00
2022-11-23T14:33:58.308Z,26.75
2022-11-23T14:36:28.650Z,31.50
2022-11-23T14:39:16.663Z,29.75
2022-11-23T14:41:48.678Z,31.50
2022-11-23T14:44:23.927Z,33.00
2022-11-23T14:47:07.468Z,32.75
2022-11-23T14:49:38.888Z,31.00
2022-11-23T14:52:18.916Z,30.75
2022-11-23T14:54:55.982Z,33.25
2022-11-23T14:57:28.789Z,33.25
2022-11-23T15:00:07.034Z,35.25
2022-11-23T15:02:47.379Z,33.00
2022-11-23T15:05:25.461Z,34.25
2022-11-23T15:08:05.007Z,33.50
2022-11-23T15:10:44.827Z,34.25
2022-11-23T15:13:23.383Z,35.00
2022-11-23T15:15:57.597Z,36.50
2022-11-23T15:18:33.002Z,34.75
2022-11-23T15:21:14.781Z,35.50
2022-11-23T15:23:47.719Z,35.25
2022-11-23T15:26:42.078Z,38.75
2022-11-23T15:29:29.512Z,39.25
2022-11-23T15:32:29.971Z,35.25
2022-11-23T15:34:52.222Z,37.75
2022-11-23T15:37:22.136Z,35.25
2022-11-23T15:39:52.706Z,35.75
2022-11-23T15:42:25.105Z,38.25
2022-11-23T15:44:55.862Z,41.75
2022-11-23T15:47:30.467Z,39.00
2022-11-23T15:50:05.085Z,37.75
2022-11-23T15:52:38.161Z,39.75
2022-11-23T15:55:10.460Z,39.50
2022-11-23T15:57:41.430Z,39.25
2022-11-23T16:00:23.555Z,35.50
2022-11-23T16:02:57.537Z,38.75
2022-11-23T16:05:28.189Z,39.75
2022-11-23T16:08:02.099Z,38.75
2022-11-23T16:10:39.227Z,37.50
2022-11-23T16:13:10.437Z,39.50
2022-11-23T16:15:50.285Z,39.50
2022-11-23T16:18:23.834Z,38.75
2022-11-23T16:20:59.907Z,41.50
2022-11-23T16:23:36.437Z,38.00
2022-11-23T16:26:08.123Z,37.00
2022-11-23T16:28:58.270Z,37.25
2022-11-23T16:31:34.804Z,38.00
2022-11-23T16:34:11.382Z,38.25
2022-11-23T16:36:42.264Z,40.50
2022-11-23T16:39:12.625Z,39.25
2022-11-23T16:41:42.301Z,38.00
2022-11-23T16:44:11.975Z,37.50
2022-11-23T16:46:43.712Z,38.75
2022-11-23T16:49:19.401Z,39.50
2022-11-23T16:51:57.401Z,37.50
2022-11-23T16:54:27.216Z,41.25
2022-11-23T16:56:56.981Z,40.50
2022-11-23T16:59:27.223Z,40.75
2022-11-23T17:01:58.215Z,39.50
2022-11-23T17:04:28.059Z,41.75
2022-11-23T17:06:57.627Z,38.75
2022-11-23T17:09:27.266Z,39.75
2022-11-23T17:11:56.871Z,38.75
2022-11-23T17:14:29.704Z,38.25
2022-11-23T17:17:03.492Z,38.50
2022-11-23T17:19:34.402Z,37.00
2022-11-23T17:22:04.538Z,39.00
2022-11-23T17:24:34.283Z,38.50
2022-11-23T17:27:03.892Z,37.75
2022-11-23T17:29:36.586Z,38.75
2022-11-23T17:32:11.691Z,39.00
2022-11-23T17:34:41.453Z,38.50
2022-11-23T17:37:18.366Z,38.50
2022-11-23T17:39:48.188Z,35.75
2022-11-23T17:42:17.615Z,39.00
2022-11-23T17:44:47.251Z,39.50
2022-11-23T17:47:19.419Z,36.50
2022-11-23T17:49:49.763Z,37.75
2022-11-23T17:52:19.033Z,36.75
2022-11-23T17:54:48.491Z,36.50
2022-11-23T17:57:18.933Z,36.25
2022-11-23T17:59:48.259Z,35.75
2022-11-23T18:02:17.694Z,36.00
2022-11-23T18:04:47.348Z,34.00
2022-11-23T18:07:17.732Z,37.25
2022-11-23T18:09:48.246Z,38.25
2022-11-23T18:12:18.556Z,38.00
2022-11-23T18:14:48.239Z,36.50
2022-11-23T18:17:17.660Z,37.50
2022-11-23T18:19:46.871Z,36.00
2022-11-23T18:22:16.284Z,35.75
2022-11-23T18:24:45.701Z,33.25
2022-11-23T18:27:15.000Z,38.00
2022-11-23T18:29:44.318Z,33.00
2022-11-23T18:32:13.652Z,38.00
2022-11-23T18:34:42.910Z,37.25
2022-11-23T18:37:12.757Z,34.75
2022-11-23T18:39:42.114Z,37.50
2022-11-23T18:42:11.387Z,39.00
2022-11-23T18:44:40.668Z,32.00
2022-11-23T18:47:10.237Z,36.75
2022-11-23T18:49:39.755Z,36.50
2022-11-23T18:52:11.290Z,39.50
2022-11-23T18:54:40.535Z,36.75
2022-11-23T18:57:09.825Z,37.75
2022-11-23T19:02:29.233Z,36.50
2022-11-23T19:04:58.595Z,31.00
2022-11-23T19:07:27.861Z,36.50
2022-11-23T19:09:58.200Z,35.75
2022-11-23T19:12:27.629Z,36.50
2022-11-23T19:14:56.847Z,36.00
2022-11-23T19:17:26.190Z,36.00
2022-11-23T19:19:55.618Z,34.50
2022-11-23T19:22:25.452Z,34.25
2022-11-23T19:24:54.972Z,34.75
2022-11-23T19:27:24.345Z,32.50
2022-11-23T19:29:53.622Z,33.25
2022-11-23T19:32:22.917Z,34.50
2022-11-23T19:34:52.162Z,35.25
2022-11-23T19:37:21.400Z,35.50
2022-11-23T19:39:50.598Z,35.75
2022-11-23T19:42:19.795Z,36.00
2022-11-23T19:44:49.223Z,33.50
2022-11-23T19:47:22.873Z,36.00
2022-11-23T19:49:52.409Z,36.75
2022-11-23T19:52:21.787Z,35.50
2022-11-23T19:54:51.118Z,34.25
2022-11-23T19:57:20.461Z,31.25
2022-11-23T19:59:49.802Z,32.25
2022-11-23T20:02:26.019Z,34.75
2022-11-23T20:04:55.323Z,29.50
2022-11-23T20:07:24.697Z,32.75
2022-11-23T20:09:54.670Z,31.50
2022-11-23T20:12:23.940Z,35.00
2022-11-23T20:14:53.221Z,34.00
2022-11-23T20:17:22.550Z,32.00
2022-11-23T20:19:51.848Z,35.50
2022-11-23T20:22:21.126Z,34.00
2022-11-23T20:24:50.392Z,33.25
2022-11-23T20:27:19.657Z,32.75
2022-11-23T20:29:48.889Z,33.75
2022-11-23T20:32:18.165Z,32.75
2022-11-23T20:34:48.231Z,33.50
2022-11-23T20:37:17.522Z,34.75
2022-11-23T20:39:46.861Z,34.00
2022-11-23T20:42:16.217Z,32.00
2022-11-23T20:44:45.835Z,34.75
2022-11-23T20:47:15.197Z,34.25
2022-11-23T20:49:44.505Z,31.25
2022-11-23T20:52:13.792Z,38.50
2022-11-23T20:54:43.081Z,33.25
2022-11-23T20:57:12.371Z,32.25
2022-11-23T20:59:42.255Z,35.75
2022-11-23T21:02:11.645Z,29.75
2022-11-23T21:04:41.249Z,33.25
2022-11-23T21:07:10.575Z,32.50
2022-11-23T21:09:39.895Z,32.25
2022-11-23T21:12:27.407Z,31.75
2022-11-23T21:14:57.635Z,34.00
2022-11-23T21:17:26.928Z,33.50
2022-11-23T21:19:56.217Z,29.50
2022-11-23T21:22:25.485Z,31.25
2022-11-23T21:24:54.778Z,31.00
2022-11-23T21:27:28.703Z,35.00
2022-11-23T21:29:58.349Z,33.25
2022-11-23T21:32:27.641Z,35.00
2022-11-23T21:34:57.142Z,32.25
2022-11-23T21:37:27.301Z,29.50
2022-11-23T21:39:56.660Z,34.50
2022-11-23T21:42:25.919Z,32.75
2022-11-23T21:44:55.204Z,32.50
2022-11-23T21:47:24.577Z,35.50
2022-11-23T21:49:54.050Z,29.50
2022-11-23T21:52:23.326Z,31.00
2022-11-23T21:54:52.547Z,35.00
2022-11-23T21:57:21.809Z,32.00
2022-11-23T21:59:51.116Z,32.50
2022-11-23T22:02:20.607Z,35.50
2022-11-23T22:04:50.897Z,34.75
2022-11-23T22:07:20.252Z,36.25
2022-11-23T22:09:50.675Z,34.50
2022-11-23T22:12:20.922Z,35.25
2022-11-23T22:14:50.424Z,35.50
2022-11-23T22:17:20.311Z,35.75
2022-11-23T22:19:49.835Z,31.50
2022-11-23T22:22:19.137Z,36.25
2022-11-23T22:24:48.429Z,33.75
2022-11-23T22:27:17.707Z,31.25
2022-11-23T22:29:47.005Z,32.75
2022-11-23T22:32:16.323Z,33.25
2022-11-23T22:34:46.294Z,36.25
2022-11-23T22:37:15.631Z,34.50
2022-11-23T22:39:45.025Z,31.50
2022-11-23T22:42:16.308Z,38.25
2022-11-23T22:44:46.163Z,34.25
2022-11-23T22:47:16.447Z,33.50
2022-11-23T22:49:46.782Z,34.00
2022-11-23T22:52:16.122Z,33.75
2022-11-23T22:54:45.808Z,35.00
2022-11-23T22:57:15.147Z,36.50
2022-11-23T22:59:44.507Z,34.75
2022-11-23T23:02:13.813Z,35.50
2022-11-23T23:04:43.579Z,36.00
2022-11-23T23:07:12.970Z,34.50
2022-11-23T23:09:43.427Z,36.00
2022-11-23T23:12:12.795Z,35.25
2022-11-23T23:14:42.218Z,35.50
2022-11-23T23:17:11.572Z,33.50
2022-11-23T23:19:40.857Z,33.75
2022-11-23T23:22:10.233Z,30.25
2022-11-23T23:24:39.674Z,35.50
2022-11-23T23:27:09.094Z,34.00
2022-11-23T23:29:39.744Z,32.75
2022-11-23T23:32:09.645Z,35.75
2022-11-23T23:34:38.979Z,35.50
2022-11-23T23:37:08.306Z,35.00
2022-11-23T23:39:37.580Z,35.50
2022-11-23T23:42:08.753Z,36.25
2022-11-23T23:44:38.258Z,35.50
2022-11-23T23:47:07.589Z,35.50
2022-11-23T23:49:36.892Z,34.50
2022-11-23T23:52:06.603Z,34.25
2022-11-23T23:54:36.074Z,31.75
2022-11-23T23:57:05.590Z,35.75
2022-11-23T23:59:34.978Z,31.00
